Time;durP1;ratioP1;P1;durP2;ratioP2;P2;SDS_P1;SDS_P2;PMS_P1;PMS_P2;Temp;Humidity;BMP_temperature;BMP_pressure;BME280_temperature;BME280_humidity;BME280_pressure;Samples;Min_cycle;Max_cycle;Signal;HPM_P1;HPM_P2
2024/01/11 00:01:46;;;;;;;844.42;97.55;;;;;;;;;;4990921;28;20200;-88
2024/01/11 00:04:13;;;;;;;852.20;99.15;;;;;;;;;;4987177;28;20040;-88
2024/01/11 00:06:43;;;;;;;853.38;95.30;;;;;;;;;;4991093;28;21227;-88
2024/01/11 00:09:11;;;;;;;829.85;97.28;;;;;;;;;;4990848;28;20039;-88
2024/01/11 00:11:39;;;;;;;843.67;100.57;;;;;;;;;;4988461;28;20213;-89
2024/01/11 00:14:07;;;;;;;878.97;101.78;;;;;;;;;;4986710;28;21060;-88
2024/01/11 00:16:34;;;;;;;832.40;95.25;;;;;;;;;;4985783;28;20085;-89
2024/01/11 00:19:01;;;;;;;822.35;95.18;;;;;;;;;;4993105;28;20140;-89
2024/01/11 00:21:28;;;;;;;826.65;98.32;;;;;;;;;;4987989;28;20106;-89
2024/01/11 00:23:55;;;;;;;857.92;99.28;;;;;;;;;;4989760;28;20039;-89
2024/01/11 00:26:21;;;;;;;828.83;90.57;;;;;;;;;;4989719;28;20139;-88
2024/01/11 00:28:48;;;;;;;828.83;96.15;;;;;;;;;;4990158;28;20923;-89
2024/01/11 00:31:15;;;;;;;803.83;92.60;;;;;;;;;;4992605;28;20088;-89
2024/01/11 00:33:42;;;;;;;848.40;90.15;;;;;;;;;;4988578;28;20059;-88
2024/01/11 00:36:08;;;;;;;882.75;100.90;;;;;;;;;;4985620;28;20036;-89
2024/01/11 00:38:35;;;;;;;843.25;101.50;;;;;;;;;;4985480;28;20108;-89
2024/01/11 00:41:02;;;;;;;859.42;102.28;;;;;;;;;;4988832;28;20042;-88
2024/01/11 00:43:28;;;;;;;878.60;102.93;;;;;;;;;;4990483;28;20040;-88
2024/01/11 00:45:55;;;;;;;862.75;102.07;;;;;;;;;;4990069;28;20040;-87
2024/01/11 00:48:21;;;;;;;855.08;101.63;;;;;;;;;;4988095;28;20223;-87
2024/01/11 00:50:48;;;;;;;854.50;98.65;;;;;;;;;;4989013;28;20843;-88
2024/01/11 00:53:15;;;;;;;858.38;98.78;;;;;;;;;;4989731;28;20122;-88
2024/01/11 00:55:41;;;;;;;871.63;101.10;;;;;;;;;;4988072;28;20064;-88
2024/01/11 00:58:08;;;;;;;913.42;108.18;;;;;;;;;;4988278;28;20040;-88
2024/01/11 01:00:34;;;;;;;869.20;102.50;;;;;;;;;;4991828;28;20345;-88
2024/01/11 01:03:01;;;;;;;923.67;108.25;;;;;;;;;;4988912;28;20154;-88
2024/01/11 01:05:28;;;;;;;878.95;100.82;;;;;;;;;;4990668;28;20926;-87
2024/01/11 01:07:54;;;;;;;888.25;103.50;;;;;;;;;;4988106;28;20157;-88
2024/01/11 01:10:21;;;;;;;875.17;103.93;;;;;;;;;;4987188;28;20032;-88
2024/01/11 01:12:47;;;;;;;900.72;105.07;;;;;;;;;;4986196;28;20036;-87
2024/01/11 01:15:14;;;;;;;874.95;103.22;;;;;;;;;;4991238;28;20096;-88
2024/01/11 01:17:41;;;;;;;886.35;102.90;;;;;;;;;;4991075;28;20051;-88
2024/01/11 01:20:08;;;;;;;905.45;99.40;;;;;;;;;;4983644;28;20047;-88
2024/01/11 01:22:34;;;;;;;897.53;105.70;;;;;;;;;;4988235;28;20042;-88
2024/01/11 01:25:01;;;;;;;891.40;104.18;;;;;;;;;;4985288;28;20028;-88
2024/01/11 01:27:28;;;;;;;883.22;104.90;;;;;;;;;;4988348;28;20806;-89
2024/01/11 01:29:55;;;;;;;885.13;104.47;;;;;;;;;;4986349;28;20039;-88
2024/01/11 01:32:21;;;;;;;857.42;104.35;;;;;;;;;;4988680;28;20965;-88
2024/01/11 01:37:53;;;;;;;879.03;104.75;;;;;;;;;;4986003;28;20120;-88
2024/01/11 01:40:20;;;;;;;907.45;109.38;;;;;;;;;;4985497;28;20599;-87
2024/01/11 01:42:46;;;;;;;889.05;105.75;;;;;;;;;;4987489;28;20338;-88
2024/01/11 01:45:14;;;;;;;869.88;98.30;;;;;;;;;;4986430;28;20032;-88
2024/01/11 01:47:42;;;;;;;896.05;107.72;;;;;;;;;;4986554;28;20320;-88
2024/01/11 01:50:09;;;;;;;895.78;105.70;;;;;;;;;;4984893;28;20036;-87
2024/01/11 01:52:37;;;;;;;878.90;104.88;;;;;;;;;;4986091;28;21139;-88
2024/01/11 01:55:05;;;;;;;870.05;101.95;;;;;;;;;;4984031;28;20048;-88
2024/01/11 01:57:33;;;;;;;877.13;98.70;;;;;;;;;;4986425;28;20099;-87
2024/01/11 02:00:00;;;;;;;864.88;101.68;;;;;;;;;;4987515;28;20860;-88
2024/01/11 02:02:27;;;;;;;938.35;110.18;;;;;;;;;;4928164;22;20048;-80
2024/01/11 02:04:54;;;;;;;1014.75;122.20;;;;;;;;;;4947023;28;20037;-81
2024/01/11 02:07:20;;;;;;;942.28;112.65;;;;;;;;;;4947663;28;20868;-81
2024/01/11 02:09:47;;;;;;;977.70;113.15;;;;;;;;;;4943874;28;20772;-81
2024/01/11 02:12:15;;;;;;;998.45;119.65;;;;;;;;;;4939641;28;20094;-81
2024/01/11 02:14:41;;;;;;;943.22;112.25;;;;;;;;;;4944755;28;20076;-82
2024/01/11 02:17:08;;;;;;;921.50;109.38;;;;;;;;;;4926829;28;20045;-82
2024/01/11 02:19:36;;;;;;;982.13;114.13;;;;;;;;;;4945261;28;21013;-82
2024/01/11 02:22:08;;;;;;;911.03;105.30;;;;;;;;;;4949152;28;20049;-82
2024/01/11 02:24:35;;;;;;;915.88;107.35;;;;;;;;;;4928694;28;20048;-82
2024/01/11 02:27:02;;;;;;;1002.28;119.28;;;;;;;;;;4947046;28;20206;-82
2024/01/11 02:29:29;;;;;;;973.95;115.72;;;;;;;;;;4942000;28;20055;-82
2024/01/11 02:31:58;;;;;;;982.20;118.13;;;;;;;;;;4942991;28;20032;-82
2024/01/11 02:34:26;;;;;;;986.95;116.90;;;;;;;;;;4946942;28;20059;-82
2024/01/11 02:36:56;;;;;;;969.80;114.00;;;;;;;;;;4945321;28;20096;-82
2024/01/11 02:39:23;;;;;;;991.08;118.28;;;;;;;;;;4946728;28;20064;-82
2024/01/11 02:41:50;;;;;;;972.67;117.45;;;;;;;;;;4929255;28;20036;-82
2024/01/11 02:44:18;;;;;;;983.60;118.35;;;;;;;;;;4948150;28;21157;-82
2024/01/11 02:46:45;;;;;;;947.08;114.45;;;;;;;;;;4944175;28;20915;-82
2024/01/11 02:49:12;;;;;;;930.75;108.07;;;;;;;;;;4948621;28;20039;-82
2024/01/11 02:51:39;;;;;;;935.05;110.00;;;;;;;;;;4944551;28;21090;-81
2024/01/11 02:54:06;;;;;;;925.92;112.32;;;;;;;;;;4926686;28;20044;-81
2024/01/11 02:56:32;;;;;;;930.33;110.25;;;;;;;;;;4946917;28;20079;-81
2024/01/11 02:58:59;;;;;;;962.20;114.15;;;;;;;;;;4944397;28;20052;-81
2024/01/11 03:01:25;;;;;;;926.35;110.43;;;;;;;;;;4945892;28;20071;-80
2024/01/11 03:03:53;;;;;;;964.80;111.38;;;;;;;;;;4946991;28;21470;-81
2024/01/11 03:06:21;;;;;;;945.67;113.80;;;;;;;;;;4946037;28;20037;-81
2024/01/11 03:08:49;;;;;;;984.35;118.82;;;;;;;;;;4945679;28;20075;-80
2024/01/11 03:11:16;;;;;;;941.85;113.85;;;;;;;;;;4946339;28;20119;-80
2024/01/11 03:13:43;;;;;;;968.03;116.43;;;;;;;;;;4946242;28;20055;-80
2024/01/11 03:16:09;;;;;;;954.15;114.03;;;;;;;;;;4947185;28;21162;-80
2024/01/11 03:18:36;;;;;;;946.78;114.00;;;;;;;;;;4942855;28;20970;-80
2024/01/11 03:21:03;;;;;;;988.35;117.38;;;;;;;;;;4945219;28;20944;-80
2024/01/11 03:23:30;;;;;;;945.90;115.30;;;;;;;;;;4949179;28;20041;-82
2024/01/11 03:25:56;;;;;;;1002.55;121.05;;;;;;;;;;4944716;28;20044;-81
2024/01/11 03:28:23;;;;;;;962.47;117.43;;;;;;;;;;4942407;28;21236;-82
2024/01/11 03:30:49;;;;;;;1022.13;124.65;;;;;;;;;;4945568;28;20059;-82
2024/01/11 03:33:16;;;;;;;936.58;112.88;;;;;;;;;;4944666;28;20040;-82
2024/01/11 03:35:44;;;;;;;987.95;117.45;;;;;;;;;;4945553;28;20056;-82
2024/01/11 03:38:10;;;;;;;943.60;113.50;;;;;;;;;;4945501;28;21017;-82
2024/01/11 03:40:38;;;;;;;925.50;113.80;;;;;;;;;;4942861;28;20903;-82
2024/01/11 03:43:04;;;;;;;939.80;110.95;;;;;;;;;;4943184;28;20047;-82
2024/01/11 03:45:31;;;;;;;1020.97;122.32;;;;;;;;;;4942155;28;20154;-82
2024/01/11 03:47:59;;;;;;;975.15;115.57;;;;;;;;;;4945779;28;20098;-82
2024/01/11 03:50:25;;;;;;;971.05;115.45;;;;;;;;;;4946289;28;20043;-82
2024/01/11 03:52:52;;;;;;;975.75;120.40;;;;;;;;;;4944450;28;20094;-82
2024/01/11 03:55:19;;;;;;;947.78;114.53;;;;;;;;;;4945404;28;20048;-81
2024/01/11 03:57:45;;;;;;;944.40;113.05;;;;;;;;;;4945546;28;20653;-82
2024/01/11 04:00:12;;;;;;;915.13;109.63;;;;;;;;;;4947927;28;20616;-82
2024/01/11 04:02:39;;;;;;;907.40;106.55;;;;;;;;;;4946267;28;20044;-81
2024/01/11 04:05:06;;;;;;;937.13;111.63;;;;;;;;;;4984741;28;20028;-82
2024/01/11 04:07:32;;;;;;;883.40;104.03;;;;;;;;;;4992588;28;20035;-82
2024/01/11 04:10:00;;;;;;;861.88;102.10;;;;;;;;;;4979077;28;20093;-81
2024/01/11 04:12:26;;;;;;;770.05;93.22;;;;;;;;;;4987809;28;20119;-82
2024/01/11 04:14:53;;;;;;;1016.47;117.78;;;;;;;;;;4955215;28;20041;-82
2024/01/11 04:17:19;;;;;;;947.35;111.90;;;;;;;;;;4947434;28;20039;-81
2024/01/11 04:19:46;;;;;;;918.70;103.25;;;;;;;;;;4948811;28;20036;-81
2024/01/11 04:22:13;;;;;;;940.03;112.05;;;;;;;;;;4947133;28;21073;-81
2024/01/11 04:24:41;;;;;;;738.38;86.25;;;;;;;;;;4964869;28;20037;-81
2024/01/11 04:27:08;;;;;;;664.00;71.80;;;;;;;;;;4980728;28;20285;-81
2024/01/11 04:29:34;;;;;;;772.63;88.05;;;;;;;;;;4976607;28;21075;-81
2024/01/11 04:32:01;;;;;;;781.78;86.43;;;;;;;;;;4977878;28;20047;-82
2024/01/11 04:34:29;;;;;;;931.70;108.68;;;;;;;;;;4967423;28;20137;-81
2024/01/11 04:36:56;;;;;;;979.92;113.97;;;;;;;;;;4948738;28;20048;-80
2024/01/11 04:39:22;;;;;;;933.95;108.65;;;;;;;;;;4951817;28;21008;-81
2024/01/11 04:41:49;;;;;;;932.95;108.88;;;;;;;;;;4924704;28;20771;-81
2024/01/11 04:44:15;;;;;;;1069.65;126.18;;;;;;;;;;4946824;28;21000;-81
2024/01/11 04:46:43;;;;;;;914.88;104.25;;;;;;;;;;4951493;28;20095;-82
2024/01/11 04:49:09;;;;;;;914.33;105.88;;;;;;;;;;4949866;28;21201;-82
2024/01/11 04:51:36;;;;;;;947.08;111.28;;;;;;;;;;4948291;28;20241;-82
2024/01/11 04:54:03;;;;;;;950.63;110.72;;;;;;;;;;4949148;28;20155;-82
2024/01/11 04:56:29;;;;;;;916.72;106.25;;;;;;;;;;4949743;28;20048;-82
2024/01/11 04:58:56;;;;;;;1026.32;120.78;;;;;;;;;;4949193;28;20048;-82
2024/01/11 05:01:23;;;;;;;942.30;109.20;;;;;;;;;;4949899;28;20551;-82
2024/01/11 05:03:49;;;;;;;939.05;109.80;;;;;;;;;;4947198;28;20140;-82
2024/01/11 05:06:20;;;;;;;937.60;108.75;;;;;;;;;;4950335;28;20036;-82
2024/01/11 05:08:47;;;;;;;930.45;106.22;;;;;;;;;;4947997;28;20210;-82
2024/01/11 05:11:21;;;;;;;900.60;103.95;;;;;;;;;;4949054;28;20040;-82
2024/01/11 05:13:48;;;;;;;950.88;108.35;;;;;;;;;;4944331;28;20037;-82
2024/01/11 05:16:22;;;;;;;940.03;107.35;;;;;;;;;;4949024;28;21015;-81
2024/01/11 05:18:53;;;;;;;938.42;108.45;;;;;;;;;;4944610;28;20102;-81
2024/01/11 05:21:20;;;;;;;894.17;101.28;;;;;;;;;;4947631;28;20047;-82
2024/01/11 05:23:47;;;;;;;904.72;101.28;;;;;;;;;;4950202;28;20110;-82
2024/01/11 05:26:14;;;;;;;947.38;106.47;;;;;;;;;;4946202;28;20032;-82
2024/01/11 05:28:40;;;;;;;889.65;100.82;;;;;;;;;;4948069;28;20098;-81
2024/01/11 05:31:09;;;;;;;905.30;101.47;;;;;;;;;;4927657;28;20053;-81
2024/01/11 05:33:35;;;;;;;978.10;113.88;;;;;;;;;;4949016;28;20059;-82
2024/01/11 05:36:02;;;;;;;912.47;105.78;;;;;;;;;;4949141;28;20151;-82
2024/01/11 05:38:29;;;;;;;932.67;109.88;;;;;;;;;;4929806;28;20063;-80
2024/01/11 05:40:57;;;;;;;1015.33;114.10;;;;;;;;;;4949364;28;21005;-80
2024/01/11 05:43:23;;;;;;;914.67;104.30;;;;;;;;;;4947710;28;20095;-81
2024/01/11 05:45:50;;;;;;;920.85;104.90;;;;;;;;;;4949366;28;20037;-81
2024/01/11 05:48:17;;;;;;;918.55;103.65;;;;;;;;;;4948922;28;20032;-80
2024/01/11 05:50:44;;;;;;;918.97;106.45;;;;;;;;;;4944968;28;20044;-81
2024/01/11 05:53:11;;;;;;;899.40;103.90;;;;;;;;;;4948077;28;20040;-80
2024/01/11 05:55:38;;;;;;;934.88;108.05;;;;;;;;;;4947848;28;20059;-79
2024/01/11 05:58:05;;;;;;;926.78;103.88;;;;;;;;;;4948990;28;20048;-81
2024/01/11 06:00:31;;;;;;;945.60;106.30;;;;;;;;;;4946326;28;20226;-81
2024/01/11 06:02:58;;;;;;;973.00;110.57;;;;;;;;;;4929122;28;20498;-81
2024/01/11 06:05:25;;;;;;;901.20;100.82;;;;;;;;;;4949819;28;20093;-82
2024/01/11 06:07:52;;;;;;;913.55;102.47;;;;;;;;;;4931341;28;20707;-82
2024/01/11 06:10:19;;;;;;;923.20;102.88;;;;;;;;;;4948449;28;20105;-82
2024/01/11 06:12:45;;;;;;;898.83;97.47;;;;;;;;;;4936535;28;20041;-81
2024/01/11 06:15:12;;;;;;;907.50;100.50;;;;;;;;;;4947043;28;20498;-79
2024/01/11 06:17:40;;;;;;;931.58;98.78;;;;;;;;;;4944623;28;20045;-81
2024/01/11 06:20:07;;;;;;;921.30;104.32;;;;;;;;;;4943981;28;20044;-81
2024/01/11 06:22:34;;;;;;;947.85;108.07;;;;;;;;;;4946642;28;20155;-81
2024/01/11 06:25:00;;;;;;;988.08;107.78;;;;;;;;;;4954230;28;20045;-88
2024/01/11 06:27:27;;;;;;;958.22;111.43;;;;;;;;;;4935291;28;20503;-81
2024/01/11 06:29:54;;;;;;;922.67;102.78;;;;;;;;;;4947182;28;20157;-82
2024/01/11 06:32:21;;;;;;;984.47;111.00;;;;;;;;;;4948497;28;20040;-81
2024/01/11 06:34:48;;;;;;;935.40;104.53;;;;;;;;;;4948063;28;21019;-80
2024/01/11 06:37:14;;;;;;;899.55;102.10;;;;;;;;;;4942889;28;20072;-81
2024/01/11 06:39:41;;;;;;;965.67;105.50;;;;;;;;;;4929330;28;20392;-84
2024/01/11 06:42:08;;;;;;;926.03;102.45;;;;;;;;;;4947595;28;20776;-85
2024/01/11 06:44:34;;;;;;;911.13;101.82;;;;;;;;;;4948705;28;20320;-83
2024/01/11 06:47:03;;;;;;;986.38;110.30;;;;;;;;;;4943809;28;20033;-85
2024/01/11 06:49:30;;;;;;;917.25;101.32;;;;;;;;;;4928792;28;20033;-85
2024/01/11 06:51:57;;;;;;;987.83;112.95;;;;;;;;;;4946191;28;21110;-86
2024/01/11 06:54:23;;;;;;;873.47;94.55;;;;;;;;;;4949671;28;20122;-86
2024/01/11 06:56:50;;;;;;;924.28;103.03;;;;;;;;;;4929592;28;20044;-85
2024/01/11 06:59:16;;;;;;;901.05;94.90;;;;;;;;;;4924488;28;20048;-86
2024/01/11 07:01:45;;;;;;;913.22;101.10;;;;;;;;;;4929531;28;21429;-83
2024/01/11 07:04:12;;;;;;;912.22;95.30;;;;;;;;;;4948126;28;20041;-85
2024/01/11 07:06:41;;;;;;;906.38;101.18;;;;;;;;;;4946934;28;20044;-81
2024/01/11 07:09:07;;;;;;;977.22;106.60;;;;;;;;;;4926878;28;20198;-81
2024/01/11 07:11:34;;;;;;;982.50;110.28;;;;;;;;;;4945045;28;20040;-81
2024/01/11 07:14:01;;;;;;;968.75;110.78;;;;;;;;;;4938678;28;20032;-80
2024/01/11 07:16:30;;;;;;;930.58;104.53;;;;;;;;;;4947363;28;20067;-80
2024/01/11 07:18:57;;;;;;;947.65;106.43;;;;;;;;;;4945312;28;20117;-81
2024/01/11 07:21:31;;;;;;;925.45;102.43;;;;;;;;;;4943389;28;20045;-81
2024/01/11 07:23:59;;;;;;;923.22;103.22;;;;;;;;;;4946744;28;20589;-81
2024/01/11 07:26:26;;;;;;;924.10;101.43;;;;;;;;;;4946810;28;20049;-81
2024/01/11 07:28:54;;;;;;;937.40;104.18;;;;;;;;;;4946546;28;20094;-81
2024/01/11 07:31:21;;;;;;;895.88;102.45;;;;;;;;;;4947765;28;20546;-80
2024/01/11 07:33:48;;;;;;;933.72;105.43;;;;;;;;;;4945790;28;20133;-81
2024/01/11 07:36:15;;;;;;;920.63;104.40;;;;;;;;;;4942655;28;20213;-81
2024/01/11 07:38:42;;;;;;;935.90;98.95;;;;;;;;;;4928477;28;21045;-80
2024/01/11 07:41:08;;;;;;;931.30;103.45;;;;;;;;;;4945351;28;20129;-81
2024/01/11 07:43:35;;;;;;;975.13;110.60;;;;;;;;;;4946962;28;20063;-81
2024/01/11 07:46:18;;;;;;;977.72;111.50;;;;;;;;;;4943831;28;20041;-81
2024/01/11 07:48:45;;;;;;;904.05;96.90;;;;;;;;;;4943553;28;20040;-81
2024/01/11 07:51:12;;;;;;;898.97;101.28;;;;;;;;;;4941628;28;20037;-81
2024/01/11 07:53:40;;;;;;;960.45;107.30;;;;;;;;;;4944110;28;20949;-81
2024/01/11 07:56:07;;;;;;;944.38;103.20;;;;;;;;;;4926984;28;20041;-81
2024/01/11 07:58:37;;;;;;;893.53;97.93;;;;;;;;;;4945236;28;20859;-81
2024/01/11 08:01:04;;;;;;;943.50;105.43;;;;;;;;;;4944536;28;20064;-81
2024/01/11 08:03:30;;;;;;;944.63;103.55;;;;;;;;;;4946123;28;20045;-80
2024/01/11 08:05:57;;;;;;;923.45;101.85;;;;;;;;;;4946098;28;20037;-80
2024/01/11 08:08:24;;;;;;;916.10;100.95;;;;;;;;;;4946420;28;20053;-80
2024/01/11 08:10:50;;;;;;;932.30;101.22;;;;;;;;;;4943152;28;20040;-81
2024/01/11 08:13:17;;;;;;;896.80;100.43;;;;;;;;;;4947507;28;20817;-79
2024/01/11 08:15:44;;;;;;;912.92;100.15;;;;;;;;;;4945281;28;20068;-79
2024/01/11 08:18:11;;;;;;;960.08;104.78;;;;;;;;;;4946298;28;20114;-79
2024/01/11 08:20:38;;;;;;;910.17;98.38;;;;;;;;;;4940799;28;21027;-79
2024/01/11 08:23:05;;;;;;;944.72;102.68;;;;;;;;;;4958421;28;20044;-79
2024/01/11 08:25:31;;;;;;;997.15;108.72;;;;;;;;;;4971065;28;20429;-80
2024/01/11 08:27:58;;;;;;;913.83;99.43;;;;;;;;;;4971415;28;20052;-82
2024/01/11 08:30:24;;;;;;;839.08;91.72;;;;;;;;;;4961287;28;20928;-79
2024/01/11 08:32:52;;;;;;;794.67;79.72;;;;;;;;;;4957551;28;20045;-80
2024/01/11 08:35:19;;;;;;;741.63;77.10;;;;;;;;;;4964787;28;20099;-80
2024/01/11 08:37:47;;;;;;;712.75;77.90;;;;;;;;;;4969995;28;20040;-80
2024/01/11 08:40:14;;;;;;;777.85;82.88;;;;;;;;;;4967799;28;20039;-80
2024/01/11 08:42:42;;;;;;;905.60;99.82;;;;;;;;;;4960557;28;20870;-80
2024/01/11 08:45:09;;;;;;;944.42;106.47;;;;;;;;;;4946041;28;20885;-80
2024/01/11 08:47:38;;;;;;;773.08;81.30;;;;;;;;;;4953905;28;20037;-80
2024/01/11 08:50:06;;;;;;;809.72;86.78;;;;;;;;;;4979395;28;20968;-81
2024/01/11 08:52:33;;;;;;;936.28;102.78;;;;;;;;;;4961271;28;20036;-82
2024/01/11 08:55:00;;;;;;;989.85;109.80;;;;;;;;;;4944259;28;20932;-81
2024/01/11 08:57:27;;;;;;;889.10;99.82;;;;;;;;;;4947963;28;21045;-81
2024/01/11 08:59:54;;;;;;;807.30;86.05;;;;;;;;;;4940641;28;20236;-81
2024/01/11 09:02:21;;;;;;;876.50;96.28;;;;;;;;;;4944548;28;20694;-81
2024/01/11 09:04:52;;;;;;;931.75;103.55;;;;;;;;;;4942412;28;20887;-81
2024/01/11 09:07:19;;;;;;;883.45;97.50;;;;;;;;;;4949548;28;20047;-81
2024/01/11 09:09:46;;;;;;;901.90;99.22;;;;;;;;;;4948458;28;20044;-82
2024/01/11 09:12:22;;;;;;;913.38;99.25;;;;;;;;;;4944212;28;20202;-82
2024/01/11 09:14:49;;;;;;;910.65;99.00;;;;;;;;;;4949783;28;21138;-82
2024/01/11 09:17:15;;;;;;;903.88;103.75;;;;;;;;;;4949452;28;20045;-82
2024/01/11 09:19:42;;;;;;;917.38;98.03;;;;;;;;;;4948570;28;20045;-82
2024/01/11 09:22:09;;;;;;;928.67;101.72;;;;;;;;;;4949006;28;20093;-82
2024/01/11 09:24:37;;;;;;;937.08;102.18;;;;;;;;;;4947741;28;21209;-82
2024/01/11 09:27:06;;;;;;;965.00;104.53;;;;;;;;;;4947809;28;20051;-81
2024/01/11 09:29:32;;;;;;;981.17;107.55;;;;;;;;;;4949230;28;20037;-81
2024/01/11 09:31:59;;;;;;;942.10;103.32;;;;;;;;;;4947342;28;20051;-81
2024/01/11 09:34:26;;;;;;;932.92;103.00;;;;;;;;;;4947086;28;20856;-82
2024/01/11 09:36:53;;;;;;;905.35;98.78;;;;;;;;;;4949880;28;20410;-82
2024/01/11 09:39:20;;;;;;;910.25;98.00;;;;;;;;;;4950385;28;20938;-82
2024/01/11 09:41:52;;;;;;;936.63;100.20;;;;;;;;;;4949107;28;20063;-81
2024/01/11 09:44:19;;;;;;;985.43;109.60;;;;;;;;;;4946420;28;20853;-82
2024/01/11 09:46:47;;;;;;;905.55;97.13;;;;;;;;;;4947460;28;20292;-81
2024/01/11 09:49:16;;;;;;;893.95;95.03;;;;;;;;;;4946923;28;20044;-82
2024/01/11 09:51:44;;;;;;;1022.78;113.45;;;;;;;;;;4945676;28;20057;-81
2024/01/11 09:54:11;;;;;;;949.03;104.72;;;;;;;;;;4948796;28;20158;-82
2024/01/11 09:56:39;;;;;;;901.10;95.00;;;;;;;;;;4950480;28;20150;-82
2024/01/11 09:59:07;;;;;;;946.55;106.82;;;;;;;;;;4947609;28;20097;-81
2024/01/11 10:01:33;;;;;;;976.67;110.32;;;;;;;;;;4946723;28;20388;-81
2024/01/11 10:04:01;;;;;;;949.10;107.78;;;;;;;;;;4948376;28;21319;-82
2024/01/11 10:06:29;;;;;;;918.28;104.45;;;;;;;;;;4949377;28;20036;-80
2024/01/11 10:08:56;;;;;;;983.90;108.70;;;;;;;;;;4947365;28;20036;-78
2024/01/11 10:11:22;;;;;;;893.75;100.07;;;;;;;;;;4949781;28;20040;-79
2024/01/11 10:13:55;;;;;;;892.53;99.80;;;;;;;;;;4929736;28;20142;-80
2024/01/11 10:16:22;;;;;;;959.88;108.30;;;;;;;;;;4946943;28;20143;-79
2024/01/11 10:18:48;;;;;;;929.35;102.68;;;;;;;;;;4945756;28;20155;-80
2024/01/11 10:21:15;;;;;;;900.13;100.95;;;;;;;;;;4947693;28;20052;-81
2024/01/11 10:23:42;;;;;;;943.25;105.35;;;;;;;;;;4945974;28;20036;-80
2024/01/11 10:26:08;;;;;;;979.70;110.18;;;;;;;;;;4947615;28;21251;-81
2024/01/11 10:28:38;;;;;;;905.92;100.70;;;;;;;;;;4945781;28;21029;-80
2024/01/11 10:31:06;;;;;;;907.72;102.40;;;;;;;;;;4948802;28;20984;-80
2024/01/11 10:33:33;;;;;;;974.20;108.15;;;;;;;;;;4946135;28;20244;-80
2024/01/11 10:36:00;;;;;;;919.38;105.05;;;;;;;;;;4945573;28;20190;-80
2024/01/11 10:38:29;;;;;;;923.60;103.75;;;;;;;;;;4946169;28;20524;-80
2024/01/11 10:40:59;;;;;;;922.85;101.30;;;;;;;;;;4948386;28;20987;-78
2024/01/11 10:43:27;;;;;;;881.63;97.43;;;;;;;;;;4947957;28;21104;-78
2024/01/11 10:45:59;;;;;;;909.33;100.80;;;;;;;;;;4948385;28;20919;-80
2024/01/11 10:48:25;;;;;;;978.65;107.25;;;;;;;;;;4943726;28;20209;-79
2024/01/11 10:50:59;;;;;;;897.25;99.15;;;;;;;;;;4947820;28;20048;-82
2024/01/11 10:53:39;;;;;;;888.38;96.97;;;;;;;;;;4958422;28;20041;-79
2024/01/11 10:56:07;;;;;;;932.17;105.03;;;;;;;;;;4950284;28;20045;-80
2024/01/11 10:58:37;;;;;;;946.08;102.97;;;;;;;;;;4942682;28;20032;-80
2024/01/11 11:01:05;;;;;;;961.22;105.03;;;;;;;;;;4945797;28;20129;-80
2024/01/11 11:03:33;;;;;;;973.35;106.95;;;;;;;;;;4945776;28;20857;-80
2024/01/11 11:06:00;;;;;;;937.42;106.53;;;;;;;;;;4944433;28;20059;-81
2024/01/11 11:08:27;;;;;;;918.97;101.57;;;;;;;;;;4947905;28;20097;-82
2024/01/11 11:10:57;;;;;;;907.95;101.13;;;;;;;;;;4949205;28;20071;-79
2024/01/11 11:13:26;;;;;;;896.97;99.28;;;;;;;;;;4948195;28;20573;-82
2024/01/11 11:15:53;;;;;;;890.25;93.10;;;;;;;;;;4953083;28;20100;-80
2024/01/11 11:18:20;;;;;;;918.65;97.78;;;;;;;;;;4942573;28;21150;-81
2024/01/11 11:20:47;;;;;;;909.35;101.55;;;;;;;;;;4945780;28;21106;-79
2024/01/11 11:23:15;;;;;;;886.67;97.43;;;;;;;;;;4947656;28;20041;-79
2024/01/11 11:25:42;;;;;;;986.08;108.20;;;;;;;;;;4942551;28;20516;-79
2024/01/11 11:28:10;;;;;;;933.67;102.60;;;;;;;;;;4946361;28;20093;-79
2024/01/11 11:30:40;;;;;;;923.83;102.38;;;;;;;;;;4944100;28;20939;-80
2024/01/11 11:33:08;;;;;;;904.42;101.60;;;;;;;;;;4945462;28;20032;-79
2024/01/11 11:35:35;;;;;;;961.30;110.25;;;;;;;;;;4944756;28;20238;-77
2024/01/11 11:38:02;;;;;;;955.78;107.68;;;;;;;;;;4950424;28;20044;-80
2024/01/11 11:40:33;;;;;;;878.10;93.68;;;;;;;;;;4950567;28;20107;-81
2024/01/11 11:43:01;;;;;;;907.08;101.03;;;;;;;;;;4949722;28;20902;-79
2024/01/11 11:45:27;;;;;;;905.13;98.00;;;;;;;;;;4955868;28;20062;-79
2024/01/11 11:47:54;;;;;;;868.80;91.30;;;;;;;;;;4970370;28;20044;-81
2024/01/11 11:50:24;;;;;;;931.70;105.43;;;;;;;;;;4949886;28;21221;-80
2024/01/11 11:52:57;;;;;;;932.08;106.55;;;;;;;;;;4928414;28;21086;-79
2024/01/11 11:55:28;;;;;;;899.95;98.30;;;;;;;;;;4946104;28;20202;-91
2024/01/11 11:57:54;;;;;;;904.88;99.90;;;;;;;;;;4948156;28;21011;-85
2024/01/11 12:00:21;;;;;;;891.17;98.30;;;;;;;;;;4949910;28;20036;-80
2024/01/11 12:02:48;;;;;;;860.08;95.47;;;;;;;;;;4930050;28;20116;-84
2024/01/11 12:05:16;;;;;;;870.45;97.53;;;;;;;;;;4946959;28;20875;-80
2024/01/11 12:07:45;;;;;;;1010.85;113.82;;;;;;;;;;4943219;28;20040;-82
2024/01/11 12:10:11;;;;;;;862.72;92.75;;;;;;;;;;4949187;28;20214;-80
2024/01/11 12:12:38;;;;;;;890.35;99.05;;;;;;;;;;4947966;28;20044;-80
2024/01/11 12:15:05;;;;;;;968.67;109.95;;;;;;;;;;4928877;28;20040;-83
2024/01/11 12:17:32;;;;;;;951.05;107.85;;;;;;;;;;4950017;28;20040;-80
2024/01/11 12:19:58;;;;;;;937.30;106.28;;;;;;;;;;4943428;28;24650;-79
2024/01/11 12:22:25;;;;;;;905.90;98.75;;;;;;;;;;4947412;28;20041;-79
2024/01/11 12:24:52;;;;;;;947.67;105.53;;;;;;;;;;4940856;28;20964;-77
2024/01/11 12:27:23;;;;;;;890.25;99.55;;;;;;;;;;4942906;28;20036;-77
2024/01/11 12:29:50;;;;;;;914.45;99.68;;;;;;;;;;4928854;28;20132;-80
2024/01/11 12:32:25;;;;;;;918.72;103.18;;;;;;;;;;4939399;28;20172;-80
2024/01/11 12:34:52;;;;;;;921.75;104.63;;;;;;;;;;4945373;28;21137;-80
2024/01/11 12:37:19;;;;;;;917.42;103.75;;;;;;;;;;4943507;28;20146;-80
2024/01/11 12:39:45;;;;;;;919.90;102.82;;;;;;;;;;4948303;28;21004;-77
2024/01/11 12:42:12;;;;;;;932.65;106.65;;;;;;;;;;4949990;28;20151;-77
2024/01/11 12:44:40;;;;;;;902.97;104.43;;;;;;;;;;4949702;28;20033;-81
2024/01/11 12:47:07;;;;;;;910.03;103.35;;;;;;;;;;4949367;28;20067;-77
2024/01/11 12:49:34;;;;;;;955.03;110.10;;;;;;;;;;4950825;28;20999;-80
2024/01/11 12:52:00;;;;;;;928.25;105.85;;;;;;;;;;4949294;28;21079;-80
2024/01/11 12:54:27;;;;;;;880.20;97.55;;;;;;;;;;4953501;28;20420;-78
2024/01/11 12:56:54;;;;;;;922.50;107.38;;;;;;;;;;4958898;28;20038;-78
2024/01/11 12:59:24;;;;;;;866.55;98.57;;;;;;;;;;4968567;28;20794;-78
2024/01/11 13:01:53;;;;;;;886.83;100.28;;;;;;;;;;4956027;28;20888;-81
2024/01/11 13:04:19;;;;;;;961.10;111.40;;;;;;;;;;4951289;28;20037;-78
2024/01/11 13:06:47;;;;;;;877.97;97.93;;;;;;;;;;4954288;28;21149;-79
2024/01/11 13:09:14;;;;;;;864.55;97.55;;;;;;;;;;4954829;28;20044;-78
2024/01/11 13:11:41;;;;;;;1000.17;112.45;;;;;;;;;;4936591;28;20048;-79
2024/01/11 13:14:14;;;;;;;949.85;108.38;;;;;;;;;;4962332;28;20036;-81
2024/01/11 13:16:41;;;;;;;908.10;102.63;;;;;;;;;;4934454;28;20811;-78
2024/01/11 13:19:07;;;;;;;874.58;98.25;;;;;;;;;;4960572;28;20048;-78
2024/01/11 13:21:52;;;;;;;869.63;97.68;;;;;;;;;;4952518;28;20075;-78
2024/01/11 13:24:18;;;;;;;938.80;105.70;;;;;;;;;;4954078;28;21150;-79
2024/01/11 13:26:45;;;;;;;899.70;101.90;;;;;;;;;;4951630;28;20040;-78
2024/01/11 13:29:12;;;;;;;908.72;101.95;;;;;;;;;;4949690;28;20033;-80
2024/01/11 13:31:38;;;;;;;964.42;108.68;;;;;;;;;;4954580;28;21053;-80
2024/01/11 13:34:05;;;;;;;876.75;96.80;;;;;;;;;;4952935;28;20051;-78
2024/01/11 13:36:31;;;;;;;877.72;98.97;;;;;;;;;;4951141;28;20040;-78
2024/01/11 13:38:59;;;;;;;948.65;107.43;;;;;;;;;;4954323;28;20088;-79
2024/01/11 13:41:26;;;;;;;792.53;89.45;;;;;;;;;;4959445;28;20037;-78
2024/01/11 13:43:54;;;;;;;890.33;100.75;;;;;;;;;;4948161;28;20071;-80
2024/01/11 13:46:20;;;;;;;988.38;110.05;;;;;;;;;;4953940;28;20542;-80
2024/01/11 13:48:47;;;;;;;888.45;100.65;;;;;;;;;;4948096;28;20107;-81
2024/01/11 13:51:15;;;;;;;905.83;103.72;;;;;;;;;;4948856;28;20048;-81
2024/01/11 13:53:42;;;;;;;1073.60;123.05;;;;;;;;;;4941012;28;20931;-81
2024/01/11 13:56:09;;;;;;;955.33;107.53;;;;;;;;;;4953116;28;20931;-80
2024/01/11 13:58:36;;;;;;;932.60;105.60;;;;;;;;;;4952339;28;20119;-87